createdAt,value
2017-09-10T00:01:48.469Z,50.70
2017-09-10T00:04:16.129Z,51.10
2017-09-10T00:06:43.737Z,50.90
2017-09-10T00:09:11.381Z,51.00
2017-09-10T00:11:38.979Z,51.30
2017-09-10T00:14:07.370Z,51.10
2017-09-10T00:16:34.979Z,51.20
2017-09-10T00:19:02.614Z,50.90
2017-09-10T00:21:30.247Z,50.70
2017-09-10T00:23:58.595Z,51.30
2017-09-10T00:26:27.104Z,51.30
2017-09-10T00:28:55.441Z,51.10
2017-09-10T00:31:23.076Z,51.10
2017-09-10T00:33:50.703Z,51.10
2017-09-10T00:36:19.131Z,50.80
2017-09-10T00:38:46.706Z,50.80
2017-09-10T00:41:14.335Z,50.90
2017-09-10T00:43:42.029Z,51.60
2017-09-10T00:46:09.750Z,50.90
2017-09-10T00:48:37.412Z,50.90
2017-09-10T00:51:05.023Z,51.20
2017-09-10T00:53:33.432Z,50.90
2017-09-10T00:56:01.820Z,51.20
2017-09-10T00:58:29.438Z,51.10
2017-09-10T01:00:57.031Z,51.20
2017-09-10T01:03:25.420Z,51.40
2017-09-10T01:05:53.070Z,51.60
2017-09-10T01:08:21.597Z,51.40
2017-09-10T01:10:49.236Z,51.30
2017-09-10T01:13:16.988Z,51.30
2017-09-10T01:15:44.592Z,51.40
2017-09-10T01:18:12.280Z,51.40
2017-09-10T01:20:39.872Z,51.40
2017-09-10T01:23:07.504Z,51.40
2017-09-10T01:25:35.095Z,51.40
2017-09-10T01:28:02.834Z,51.50
2017-09-10T01:30:30.460Z,51.70
2017-09-10T01:32:58.093Z,50.80
2017-09-10T01:35:25.753Z,51.70
2017-09-10T01:37:53.398Z,51.70
2017-09-10T01:40:21.728Z,51.60
2017-09-10T01:42:49.512Z,51.60
2017-09-10T01:45:17.110Z,51.60
2017-09-10T01:47:44.727Z,51.50
2017-09-10T01:50:12.344Z,51.60
2017-09-10T01:52:39.978Z,51.60
2017-09-10T01:55:08.374Z,51.60
2017-09-10T01:57:35.996Z,51.50
2017-09-10T02:00:03.570Z,51.60
2017-09-10T02:02:31.922Z,51.40
2017-09-10T02:04:59.560Z,51.50
2017-09-10T02:07:27.148Z,51.40
2017-09-10T02:09:54.836Z,51.60
2017-09-10T02:12:23.180Z,51.80
2017-09-10T02:14:50.788Z,51.70
2017-09-10T02:17:18.407Z,51.70
2017-09-10T02:19:46.783Z,51.80
2017-09-10T02:22:14.426Z,51.60
2017-09-10T02:24:42.053Z,51.60
2017-09-10T02:27:09.644Z,51.80
2017-09-10T02:29:37.322Z,51.30
2017-09-10T02:32:04.954Z,51.20
2017-09-10T02:34:32.563Z,51.60
2017-09-10T02:37:00.383Z,51.60
2017-09-10T02:39:27.990Z,51.80
2017-09-10T02:41:55.612Z,51.80
2017-09-10T02:44:23.210Z,52.10
2017-09-10T02:46:51.656Z,51.70
2017-09-10T02:49:19.250Z,51.80
2017-09-10T02:51:47.671Z,51.40
2017-09-10T02:54:15.294Z,51.50
2017-09-10T02:56:42.910Z,51.40
2017-09-10T02:59:10.522Z,51.60
2017-09-10T03:01:38.876Z,51.90
2017-09-10T03:04:06.490Z,51.80
2017-09-10T03:06:34.134Z,51.80
2017-09-10T03:09:02.473Z,51.60
2017-09-10T03:11:30.888Z,51.70
2017-09-10T03:13:59.252Z,51.80
2017-09-10T03:16:27.669Z,51.60
2017-09-10T03:18:55.257Z,51.70
2017-09-10T03:21:22.882Z,51.60
2017-09-10T03:23:50.504Z,52.30
2017-09-10T03:26:18.151Z,51.60
2017-09-10T03:28:45.728Z,51.70
2017-09-10T03:31:13.420Z,51.80
2017-09-10T03:33:41.806Z,51.80
2017-09-10T03:36:09.438Z,51.80
2017-09-10T03:38:37.020Z,51.70
2017-09-10T03:41:05.393Z,51.70
2017-09-10T03:43:33.804Z,51.70
2017-09-10T03:46:01.371Z,51.70
2017-09-10T03:48:28.943Z,51.40
2017-09-10T03:50:56.588Z,51.30
2017-09-10T03:53:24.167Z,51.40
2017-09-10T03:55:51.845Z,51.60
2017-09-10T03:58:19.671Z,51.80
2017-09-10T04:00:47.245Z,51.60
2017-09-10T04:03:14.830Z,51.70
2017-09-10T04:05:42.468Z,52.00
2017-09-10T04:08:10.063Z,51.60
2017-09-10T04:10:37.746Z,52.10
2017-09-10T04:13:06.097Z,51.80
2017-09-10T04:15:33.713Z,51.80
2017-09-10T04:18:01.353Z,52.20
2017-09-10T04:20:28.939Z,52.00
2017-09-10T04:22:56.561Z,51.90
2017-09-10T04:25:25.018Z,51.80
2017-09-10T04:27:52.618Z,51.80
2017-09-10T04:30:20.209Z,51.90
2017-09-10T04:32:47.847Z,51.90
2017-09-10T04:35:15.437Z,52.00
2017-09-10T04:37:43.025Z,52.00
2017-09-10T04:40:10.671Z,51.90
2017-09-10T04:42:38.267Z,51.70
2017-09-10T04:45:07.363Z,51.90
2017-09-10T04:47:35.025Z,51.80
2017-09-10T04:50:03.426Z,51.60
2017-09-10T04:52:30.986Z,51.60
2017-09-10T04:54:58.698Z,51.90
2017-09-10T04:57:26.300Z,51.90
2017-09-10T04:59:53.927Z,51.80
2017-09-10T05:02:21.524Z,51.80
2017-09-10T05:04:49.159Z,52.00
2017-09-10T05:07:17.073Z,52.00
2017-09-10T05:09:44.699Z,51.80
2017-09-10T05:12:13.058Z,51.90
2017-09-10T05:14:40.670Z,52.00
2017-09-10T05:17:08.276Z,51.70
2017-09-10T05:19:35.861Z,51.70
2017-09-10T05:22:04.281Z,51.60
2017-09-10T05:24:31.987Z,51.60
2017-09-10T05:27:00.355Z,51.60
2017-09-10T05:29:28.229Z,51.70
2017-09-10T05:31:56.569Z,52.00
2017-09-10T05:34:24.162Z,52.00
2017-09-10T05:36:51.792Z,51.60
2017-09-10T05:39:19.442Z,51.90
2017-09-10T05:41:47.149Z,51.90
2017-09-10T05:44:14.757Z,51.70
2017-09-10T05:46:42.509Z,51.70
2017-09-10T05:49:10.236Z,51.80
2017-09-10T05:51:37.817Z,52.10
2017-09-10T05:54:06.316Z,52.30
2017-09-10T05:56:33.905Z,52.30
2017-09-10T05:59:01.512Z,51.70
2017-09-10T06:01:29.181Z,51.20
2017-09-10T06:03:57.551Z,50.80
2017-09-10T06:06:25.189Z,50.80
2017-09-10T06:08:52.769Z,52.10
2017-09-10T06:11:21.134Z,50.50
2017-09-10T06:13:48.739Z,50.20
2017-09-10T06:16:16.315Z,50.40
2017-09-10T06:18:43.954Z,47.40
2017-09-10T06:21:12.566Z,47.20
2017-09-10T06:23:40.161Z,47.30
2017-09-10T06:26:07.795Z,46.50
2017-09-10T06:28:35.386Z,47.80
2017-09-10T06:31:02.982Z,47.20
2017-09-10T06:33:30.619Z,46.90
2017-09-10T06:35:59.030Z,48.20
2017-09-10T06:38:26.655Z,48.10
2017-09-10T06:40:55.089Z,48.80
2017-09-10T06:43:22.750Z,48.80
2017-09-10T06:45:50.336Z,48.20
2017-09-10T06:48:18.072Z,49.20
2017-09-10T06:50:45.695Z,50.00
2017-09-10T06:53:14.062Z,50.00
2017-09-10T06:55:42.426Z,49.80
2017-09-10T06:58:10.028Z,49.90
2017-09-10T07:00:37.660Z,50.00
2017-09-10T07:03:05.234Z,50.00
2017-09-10T07:05:32.877Z,50.00
2017-09-10T07:08:01.286Z,50.10
2017-09-10T07:10:29.625Z,47.70
2017-09-10T07:12:57.246Z,47.70
2017-09-10T07:15:25.154Z,48.50
2017-09-10T07:17:53.549Z,49.50
2017-09-10T07:20:21.934Z,49.50
2017-09-10T07:22:50.384Z,49.50
2017-09-10T07:25:18.159Z,49.50
2017-09-10T07:27:46.505Z,49.10
2017-09-10T07:30:14.135Z,49.00
2017-09-10T07:32:41.794Z,48.90
2017-09-10T07:35:09.457Z,49.40
2017-09-10T07:37:37.086Z,49.60
2017-09-10T07:40:05.647Z,49.50
2017-09-10T07:42:33.299Z,49.40
2017-09-10T07:45:00.893Z,49.50
2017-09-10T07:47:28.475Z,49.60
2017-09-10T07:49:56.887Z,49.50
2017-09-10T07:52:24.511Z,49.50
2017-09-10T07:54:52.854Z,49.30
2017-09-10T07:57:20.485Z,50.00
2017-09-10T07:59:48.061Z,49.50
2017-09-10T08:02:15.671Z,49.60
2017-09-10T08:04:44.235Z,49.50
2017-09-10T08:07:11.880Z,49.50
2017-09-10T08:09:39.717Z,49.50
2017-09-10T08:12:07.374Z,49.50
2017-09-10T08:14:34.938Z,49.50
2017-09-10T08:17:02.547Z,49.50
2017-09-10T08:19:31.721Z,49.40
2017-09-10T08:21:59.345Z,49.30
2017-09-10T08:24:27.009Z,49.30
2017-09-10T08:26:54.655Z,49.50
2017-09-10T08:29:23.004Z,49.60
2017-09-10T08:31:51.106Z,49.60
2017-09-10T08:34:19.473Z,49.70
2017-09-10T08:36:47.887Z,49.80
2017-09-10T08:39:15.487Z,49.80
2017-09-10T08:41:43.928Z,50.00
2017-09-10T08:44:11.543Z,50.00
2017-09-10T08:46:39.145Z,50.00
2017-09-10T08:49:06.763Z,50.10
2017-09-10T08:51:34.355Z,50.20
2017-09-10T08:54:01.945Z,49.50
2017-09-10T08:56:29.570Z,49.30
2017-09-10T08:58:57.163Z,49.30
2017-09-10T09:01:24.787Z,47.80
2017-09-10T09:03:53.197Z,50.30
2017-09-10T09:06:20.829Z,50.30
2017-09-10T09:08:48.644Z,50.30
2017-09-10T09:11:16.359Z,51.70
2017-09-10T09:13:44.041Z,51.40
2017-09-10T09:16:11.712Z,52.80
2017-09-10T09:18:39.481Z,55.20
2017-09-10T09:21:07.049Z,55.40
2017-09-10T09:23:34.655Z,54.30
2017-09-10T09:26:03.118Z,55.60
2017-09-10T09:28:30.755Z,56.00
2017-09-10T09:30:58.332Z,61.30
2017-09-10T09:33:25.980Z,60.50
2017-09-10T09:35:53.665Z,61.50
2017-09-10T09:38:21.247Z,58.30
2017-09-10T09:40:49.649Z,66.00
2017-09-10T09:43:17.213Z,65.60
2017-09-10T09:45:44.818Z,63.40
2017-09-10T09:48:12.441Z,68.40
2017-09-10T09:50:40.108Z,66.60
2017-09-10T09:53:07.693Z,66.00
2017-09-10T09:55:35.451Z,62.90
2017-09-10T09:58:03.213Z,61.40
2017-09-10T10:00:30.777Z,56.40
2017-09-10T10:02:58.385Z,55.40
2017-09-10T10:05:25.983Z,56.30
2017-09-10T10:07:53.572Z,56.40
2017-09-10T10:10:21.315Z,56.40
2017-09-10T10:12:48.891Z,54.70
2017-09-10T10:15:16.641Z,53.80
2017-09-10T10:17:44.217Z,50.90
2017-09-10T10:20:11.824Z,50.90
2017-09-10T10:22:39.512Z,52.00
2017-09-10T10:25:07.091Z,50.80
2017-09-10T10:27:34.794Z,50.90
2017-09-10T10:30:02.546Z,50.80
2017-09-10T10:32:30.942Z,50.80
2017-09-10T10:34:58.521Z,50.80
2017-09-10T10:37:26.143Z,50.80
2017-09-10T10:39:54.673Z,51.70
2017-09-10T10:42:22.266Z,51.80
2017-09-10T10:44:49.961Z,50.70
2017-09-10T10:47:18.291Z,50.70
2017-09-10T10:49:45.917Z,50.70
2017-09-10T10:52:13.559Z,50.70
2017-09-10T10:54:41.215Z,50.70
2017-09-10T10:57:09.595Z,50.70
2017-09-10T10:59:37.993Z,50.70
2017-09-10T11:02:05.627Z,50.70
2017-09-10T11:04:34.033Z,52.90
2017-09-10T11:07:01.648Z,52.80
2017-09-10T11:09:29.284Z,50.70
2017-09-10T11:11:56.849Z,50.60
2017-09-10T11:14:24.461Z,50.70
2017-09-10T11:16:52.849Z,53.80
2017-09-10T11:19:20.442Z,53.70
2017-09-10T11:21:48.089Z,53.40
2017-09-10T11:24:15.677Z,51.70
2017-09-10T11:26:43.357Z,50.90
2017-09-10T11:29:10.986Z,52.50
2017-09-10T11:31:38.636Z,51.00
2017-09-10T11:34:06.283Z,51.00
2017-09-10T11:36:33.854Z,51.00
2017-09-10T11:39:01.502Z,51.00
2017-09-10T11:41:29.181Z,51.00
2017-09-10T11:43:56.956Z,51.10
2017-09-10T11:46:24.613Z,51.80
2017-09-10T11:48:52.215Z,51.10
2017-09-10T11:51:19.983Z,49.90
2017-09-10T11:53:47.671Z,48.50
2017-09-10T11:56:15.241Z,49.50
2017-09-10T11:58:43.084Z,49.80
2017-09-10T12:01:11.455Z,48.60
2017-09-10T12:03:39.850Z,49.00
2017-09-10T12:06:07.468Z,48.70
2017-09-10T12:08:35.123Z,48.90
2017-09-10T12:11:02.727Z,49.10
2017-09-10T12:13:31.071Z,51.20
2017-09-10T12:15:58.731Z,51.20
2017-09-10T12:18:26.336Z,51.20
2017-09-10T12:20:54.687Z,51.10
2017-09-10T12:23:22.482Z,51.00
2017-09-10T12:25:50.084Z,51.10
2017-09-10T12:28:17.702Z,51.10
2017-09-10T12:30:46.051Z,51.00
2017-09-10T12:33:13.640Z,51.00
2017-09-10T12:35:41.471Z,51.00
2017-09-10T12:38:09.915Z,51.10
2017-09-10T12:40:37.566Z,51.00
2017-09-10T12:43:05.153Z,50.30
2017-09-10T12:45:32.761Z,50.50
2017-09-10T12:48:01.129Z,51.00
2017-09-10T12:50:29.545Z,50.90
2017-09-10T12:52:57.154Z,51.00
2017-09-10T12:55:25.533Z,49.80
2017-09-10T12:57:53.161Z,49.80
2017-09-10T13:00:20.754Z,49.90
2017-09-10T13:02:48.337Z,49.60
2017-09-10T13:05:16.744Z,49.60
2017-09-10T13:07:44.343Z,49.90
2017-09-10T13:10:11.992Z,49.80
2017-09-10T13:12:40.524Z,49.60
2017-09-10T13:15:09.166Z,49.50
2017-09-10T13:17:36.798Z,49.40
2017-09-10T13:20:04.405Z,49.00
2017-09-10T13:22:32.173Z,48.90
2017-09-10T13:24:59.825Z,48.70
2017-09-10T13:27:27.456Z,48.00
2017-09-10T13:29:55.063Z,48.00
2017-09-10T13:32:22.623Z,48.20
2017-09-10T13:34:50.271Z,49.10
2017-09-10T13:37:17.858Z,48.20
2017-09-10T13:39:46.261Z,48.00
2017-09-10T13:42:14.032Z,48.10
2017-09-10T13:44:41.637Z,48.10
2017-09-10T13:47:09.275Z,47.50
2017-09-10T13:49:36.920Z,47.90
2017-09-10T13:52:04.521Z,47.40
2017-09-10T13:54:32.324Z,47.10
2017-09-10T13:57:00.032Z,47.10
2017-09-10T13:59:27.624Z,47.20
2017-09-10T14:01:55.984Z,47.50
2017-09-10T14:04:24.394Z,48.60
2017-09-10T14:06:52.773Z,48.60
2017-09-10T14:09:20.354Z,48.50
2017-09-10T14:11:47.997Z,48.00
2017-09-10T14:14:16.349Z,48.00
2017-09-10T14:16:43.985Z,48.80
2017-09-10T14:19:11.578Z,48.10
2017-09-10T14:21:39.183Z,48.20
2017-09-10T14:24:06.848Z,47.50
2017-09-10T14:26:34.469Z,47.70
2017-09-10T14:29:02.850Z,47.80
2017-09-10T14:31:30.452Z,47.80
2017-09-10T14:33:58.082Z,47.80
2017-09-10T14:36:26.494Z,46.60
2017-09-10T14:38:54.125Z,46.70
2017-09-10T14:41:21.838Z,46.60
2017-09-10T14:43:49.443Z,46.90
2017-09-10T14:46:17.813Z,45.50
2017-09-10T14:48:46.227Z,45.50
2017-09-10T14:51:13.816Z,45.30
2017-09-10T14:53:41.422Z,46.60
2017-09-10T14:56:09.790Z,44.60
2017-09-10T14:58:38.177Z,44.50
2017-09-10T15:01:05.831Z,44.50
2017-09-10T15:03:34.444Z,45.50
2017-09-10T15:06:02.029Z,45.40
2017-09-10T15:08:29.660Z,45.70
2017-09-10T15:10:57.358Z,46.30
2017-09-10T15:13:25.017Z,45.80
2017-09-10T15:15:52.699Z,46.60
2017-09-10T15:18:20.352Z,45.40
2017-09-10T15:20:47.950Z,45.20
2017-09-10T15:23:16.307Z,45.50
2017-09-10T15:25:43.933Z,45.30
2017-09-10T15:28:11.510Z,44.10
2017-09-10T15:30:39.084Z,44.70
2017-09-10T15:33:06.713Z,44.40
2017-09-10T15:35:34.302Z,44.80
2017-09-10T15:38:01.908Z,44.60
2017-09-10T15:40:29.501Z,44.50
2017-09-10T15:42:57.147Z,45.40
2017-09-10T15:45:24.781Z,44.90
2017-09-10T15:47:52.479Z,45.90
2017-09-10T15:50:20.143Z,45.50
2017-09-10T15:52:47.744Z,44.80
2017-09-10T15:55:15.332Z,44.10
2017-09-10T15:57:42.933Z,44.50
2017-09-10T16:00:10.647Z,44.00
2017-09-10T16:02:39.039Z,45.20
2017-09-10T16:05:06.631Z,45.20
2017-09-10T16:07:34.294Z,44.90
2017-09-10T16:10:01.908Z,46.00
2017-09-10T16:12:30.263Z,45.90
2017-09-10T16:14:58.053Z,45.90
2017-09-10T16:17:26.403Z,45.90
2017-09-10T16:19:54.000Z,45.90
2017-09-10T16:22:21.654Z,45.80
2017-09-10T16:24:50.011Z,45.70
2017-09-10T16:27:18.439Z,45.70
2017-09-10T16:29:46.075Z,45.70
2017-09-10T16:32:13.801Z,45.70
2017-09-10T16:34:41.573Z,45.70
2017-09-10T16:37:09.227Z,45.70
2017-09-10T16:39:36.814Z,46.10
2017-09-10T16:42:05.261Z,45.60
2017-09-10T16:44:32.915Z,45.60
2017-09-10T16:47:00.581Z,45.60
2017-09-10T16:49:28.157Z,45.60
2017-09-10T16:51:55.917Z,45.60
2017-09-10T16:54:23.496Z,45.90
2017-09-10T16:56:51.863Z,45.50
2017-09-10T16:59:19.505Z,45.50
2017-09-10T17:01:47.207Z,45.60
2017-09-10T17:04:15.642Z,45.50
2017-09-10T17:06:43.255Z,45.50
2017-09-10T17:09:11.593Z,45.90
2017-09-10T17:11:39.226Z,45.90
2017-09-10T17:14:06.896Z,46.20
2017-09-10T17:16:34.583Z,46.40
2017-09-10T17:19:02.235Z,45.60
2017-09-10T17:21:29.841Z,46.20
2017-09-10T17:23:57.657Z,46.20
2017-09-10T17:26:25.385Z,46.50
2017-09-10T17:28:52.960Z,46.60
2017-09-10T17:31:20.604Z,46.60
2017-09-10T17:33:48.205Z,46.70
2017-09-10T17:36:15.973Z,46.10
2017-09-10T17:38:43.721Z,46.90
2017-09-10T17:41:11.299Z,46.90
2017-09-10T17:43:38.933Z,47.00
2017-09-10T17:46:06.523Z,47.40
2017-09-10T17:48:34.171Z,47.50
2017-09-10T17:51:01.837Z,47.40
2017-09-10T17:53:29.487Z,47.90
2017-09-10T17:55:57.165Z,48.30
2017-09-10T17:58:24.761Z,47.50
2017-09-10T18:00:53.315Z,47.50
2017-09-10T18:03:21.576Z,48.20
2017-09-10T18:05:49.193Z,47.40
2017-09-10T18:08:16.822Z,47.60
2017-09-10T18:10:44.455Z,47.90
2017-09-10T18:13:12.100Z,48.30
2017-09-10T18:15:39.754Z,48.60
2017-09-10T18:18:07.410Z,48.80
2017-09-10T18:20:35.013Z,48.50
2017-09-10T18:23:02.749Z,48.50
2017-09-10T18:25:30.385Z,49.10
2017-09-10T18:27:58.003Z,49.30
2017-09-10T18:30:25.650Z,50.10
2017-09-10T18:32:53.279Z,50.10
2017-09-10T18:35:20.891Z,50.10
2017-09-10T18:37:48.547Z,50.10
2017-09-10T18:40:16.150Z,50.10
2017-09-10T18:42:43.817Z,50.00
2017-09-10T18:45:11.661Z,50.00
2017-09-10T18:47:40.035Z,50.10
2017-09-10T18:50:08.414Z,50.00
2017-09-10T18:52:36.875Z,50.00
2017-09-10T18:55:04.449Z,50.00
2017-09-10T18:57:32.119Z,49.90
2017-09-10T19:00:00.499Z,50.00
2017-09-10T19:02:28.910Z,50.00
2017-09-10T19:04:56.567Z,50.00
2017-09-10T19:07:24.162Z,50.00
2017-09-10T19:09:52.749Z,50.00
2017-09-10T19:12:20.357Z,50.00
2017-09-10T19:14:48.769Z,50.00
2017-09-10T19:17:16.359Z,50.00
2017-09-10T19:19:44.087Z,50.00
2017-09-10T19:22:11.762Z,50.00
2017-09-10T19:24:39.381Z,50.00
2017-09-10T19:27:07.805Z,49.70
2017-09-10T19:29:35.413Z,49.70
2017-09-10T19:32:03.039Z,49.70
2017-09-10T19:34:30.674Z,49.70
2017-09-10T19:36:58.435Z,49.60
2017-09-10T19:39:26.149Z,49.60
2017-09-10T19:41:53.747Z,49.60
2017-09-10T19:44:21.392Z,49.60
2017-09-10T19:46:49.734Z,49.50
2017-09-10T19:49:17.385Z,49.50
2017-09-10T19:51:44.973Z,49.50
2017-09-10T19:54:13.318Z,49.50
2017-09-10T19:56:40.987Z,49.50
2017-09-10T19:59:08.583Z,49.30
2017-09-10T20:01:37.000Z,49.30
2017-09-10T20:04:04.624Z,49.20
2017-09-10T20:06:32.246Z,49.30
2017-09-10T20:09:00.014Z,49.30
2017-09-10T20:11:27.702Z,49.20
2017-09-10T20:13:56.099Z,49.20
2017-09-10T20:16:24.494Z,49.20
2017-09-10T20:18:52.249Z,49.20
2017-09-10T20:21:19.868Z,49.20
2017-09-10T20:23:47.617Z,49.20
2017-09-10T20:26:15.577Z,49.20
2017-09-10T20:28:43.307Z,49.20
2017-09-10T20:31:10.910Z,49.20
2017-09-10T20:33:38.559Z,51.00
2017-09-10T20:36:06.172Z,50.40
2017-09-10T20:38:34.736Z,49.90
2017-09-10T20:41:02.320Z,50.10
2017-09-10T20:43:30.712Z,50.30
2017-09-10T20:45:58.430Z,50.50
2017-09-10T20:48:26.015Z,49.70
2017-09-10T20:50:54.432Z,49.90
2017-09-10T20:53:22.224Z,49.90
2017-09-10T20:55:49.815Z,49.90
2017-09-10T20:58:18.221Z,49.30
2017-09-10T21:00:45.851Z,49.70
2017-09-10T21:03:14.212Z,50.50
2017-09-10T21:05:42.835Z,49.90
2017-09-10T21:08:11.317Z,49.90
2017-09-10T21:10:39.129Z,49.90
2017-09-10T21:13:06.749Z,49.90
2017-09-10T21:15:35.143Z,49.70
2017-09-10T21:18:02.849Z,49.70
2017-09-10T21:20:30.509Z,49.70
2017-09-10T21:22:58.245Z,49.70
2017-09-10T21:25:26.729Z,49.70
2017-09-10T21:27:54.404Z,49.60
2017-09-10T21:30:22.070Z,49.60
2017-09-10T21:32:49.701Z,49.60
2017-09-10T21:35:17.605Z,49.60
2017-09-10T21:37:45.197Z,49.50
2017-09-10T21:40:13.553Z,49.60
2017-09-10T21:42:41.179Z,49.60
2017-09-10T21:45:09.729Z,49.40
2017-09-10T21:47:37.337Z,49.40
2017-09-10T21:50:05.059Z,49.50
2017-09-10T21:52:32.636Z,49.50
2017-09-10T21:55:00.231Z,49.50
2017-09-10T21:57:28.029Z,49.30
2017-09-10T21:59:56.400Z,49.40
2017-09-10T22:02:24.779Z,49.30
2017-09-10T22:04:53.276Z,49.80
2017-09-10T22:07:21.711Z,49.30
2017-09-10T22:09:49.343Z,49.20
2017-09-10T22:12:16.951Z,49.30
2017-09-10T22:14:44.530Z,49.20
2017-09-10T22:17:12.919Z,49.20
2017-09-10T22:19:41.282Z,49.20
2017-09-10T22:22:09.689Z,49.30
2017-09-10T22:24:37.265Z,49.20
2017-09-10T22:27:04.963Z,49.20
2017-09-10T22:29:32.577Z,49.20
2017-09-10T22:32:00.203Z,49.20
2017-09-10T22:34:28.809Z,49.20
2017-09-10T22:37:24.184Z,49.00
2017-09-10T22:39:51.837Z,49.20
2017-09-10T22:42:19.437Z,49.20
2017-09-10T22:44:47.801Z,49.30
2017-09-10T22:47:16.294Z,49.20
2017-09-10T22:49:44.635Z,49.20
2017-09-10T22:52:12.287Z,49.20
2017-09-10T22:54:39.881Z,49.20
2017-09-10T22:57:08.237Z,49.70
2017-09-10T22:59:35.859Z,49.10
2017-09-10T23:02:03.426Z,49.20
2017-09-10T23:04:32.073Z,49.10
2017-09-10T23:07:00.529Z,49.10
2017-09-10T23:09:29.601Z,49.10
2017-09-10T23:11:57.203Z,49.00
2017-09-10T23:14:25.623Z,49.00
2017-09-10T23:16:53.445Z,49.00
2017-09-10T23:19:21.018Z,48.80
2017-09-10T23:21:49.464Z,48.80
2017-09-10T23:24:17.053Z,48.80
2017-09-10T23:26:45.405Z,48.80
2017-09-10T23:29:13.287Z,48.80
2017-09-10T23:31:41.663Z,48.50
2017-09-10T23:34:10.097Z,48.80
2017-09-10T23:36:37.701Z,49.00
2017-09-10T23:39:05.435Z,49.00
2017-09-10T23:41:33.037Z,49.00
2017-09-10T23:44:01.445Z,48.90
2017-09-10T23:46:29.127Z,48.80
2017-09-10T23:48:56.745Z,48.80
2017-09-10T23:51:25.089Z,49.00
2017-09-10T23:53:52.744Z,49.00
2017-09-10T23:56:20.333Z,48.90
2017-09-10T23:58:47.897Z,48.90
